In Rescue
 
Open Full Screen Window  High Contrast Mode
Wind Gusting 00 knots
05
September 19, 2019 5:27 PM EDT
Weather Information
Wind Direction
  130 °
Wind Speed
  05 kt (6 mph)
Wind Gust
  00 kt (0 mph)
Altimeter
30.11 in
Visibility
10 SM
Temperature
26° C
79° F
Dewpoint
12° C
54° F
Humidity
42%
Sky Condition
Clear
VFR

METAR KTEW 192127Z AUTO 13005KT 10SM CLR 26/12 A3011 RMK AO2 T02600120

FAA Disclaimer: The data displayed is for advisory purposes only and is not to be used for flight planning or operations.